SWR161 RJAA-LSZH
Flight info
| Callsign | SWR161 |
|---|---|
| Flight time | N/A |
| Altitude | 31000 |
| Route | GULBO Y808 NOLAX Y812 ADNAP R591 ADGOR AGEDI AKISU DCT ASPIN DCT OPAKE DCT NATES R338 MARCC DCT JUJXI DCT 72N165W 75N162W DCT PEASY DCT 8530N06000W/M081F310 80N022W 70N010W 65N005W DCT SOSAR/N0464F310 DCT WAFIL DCT FORTY DCT CUTEL DCT VENAS DCT LONAM DCT SUTAL DCT GTQ DCT BAMEV DCT BLM |
| Aircraft | B77W/H-SDE1E2E3FGHIJ2J3J4J5M1RWXY/LB1D1 |
Departure
| Time | N/A |
|---|---|
| Airport | Narita International Airport (RJAA) |
Arrival
| Time | 2026-05-04 17:33 |
|---|---|
| Airport | Zürich Airport (LSZH) |
| Time | Latitude | Longitude | Altitude | Speed | Heading |
|---|---|---|---|---|---|
| 2026-05-04 14:38 | 66.75748 | -6.50888 | 36776 ft | 508 kts | 161° |
| 2026-05-04 14:39 | 66.69146 | -6.44808 | 36769 ft | 509 kts | 161° |
| 2026-05-04 14:39 | 66.62586 | -6.38802 | 36767 ft | 509 kts | 161° |
| 2026-05-04 14:40 | 66.52652 | -6.29770 | 36762 ft | 507 kts | 162° |
| 2026-05-04 14:40 | 66.46050 | -6.23809 | 36760 ft | 508 kts | 162° |
| 2026-05-04 14:41 | 66.39399 | -6.17838 | 36763 ft | 508 kts | 162° |
| 2026-05-04 14:42 | 66.26160 | -6.06054 | 36766 ft | 510 kts | 162° |
| 2026-05-04 14:42 | 66.19507 | -6.00180 | 36768 ft | 509 kts | 162° |
| 2026-05-04 14:43 | 66.12837 | -5.94326 | 36766 ft | 508 kts | 162° |
| 2026-05-04 14:43 | 66.06203 | -5.88536 | 36767 ft | 508 kts | 162° |
| 2026-05-04 14:44 | 65.99543 | -5.82754 | 36768 ft | 508 kts | 162° |
| 2026-05-04 14:44 | 65.92886 | -5.77007 | 36771 ft | 509 kts | 162° |
| 2026-05-04 14:45 | 65.86233 | -5.71296 | 36769 ft | 510 kts | 162° |
| 2026-05-04 14:45 | 65.79536 | -5.65578 | 36776 ft | 509 kts | 163° |
| 2026-05-04 14:46 | 65.72923 | -5.59962 | 36772 ft | 508 kts | 163° |
| 2026-05-04 14:46 | 65.66249 | -5.54326 | 36776 ft | 508 kts | 163° |
| 2026-05-04 14:47 | 65.59613 | -5.48752 | 36784 ft | 509 kts | 163° |
| 2026-05-04 14:47 | 65.52926 | -5.43166 | 36787 ft | 510 kts | 163° |
| 2026-05-04 14:48 | 65.46267 | -5.37634 | 36793 ft | 510 kts | 163° |
| 2026-05-04 14:48 | 65.39587 | -5.32113 | 36798 ft | 509 kts | 164° |
| 2026-05-04 14:49 | 65.32897 | -5.26615 | 36801 ft | 509 kts | 164° |
| 2026-05-04 14:49 | 65.26235 | -5.21169 | 36801 ft | 509 kts | 164° |
| 2026-05-04 14:50 | 65.19554 | -5.15736 | 36797 ft | 509 kts | 164° |
| 2026-05-04 14:50 | 65.12901 | -5.10354 | 36803 ft | 509 kts | 164° |
| 2026-05-04 14:51 | 65.06221 | -5.04980 | 36822 ft | 509 kts | 164° |
| 2026-05-04 14:51 | 64.99548 | -4.99639 | 36825 ft | 508 kts | 164° |
| 2026-05-04 14:52 | 64.92911 | -4.93944 | 36834 ft | 510 kts | 162° |
| 2026-05-04 14:52 | 64.86323 | -4.88236 | 36840 ft | 509 kts | 162° |
| 2026-05-04 14:53 | 64.79668 | -4.82516 | 36846 ft | 510 kts | 163° |
| 2026-05-04 14:53 | 64.73032 | -4.76854 | 36852 ft | 510 kts | 163° |
| 2026-05-04 14:54 | 64.66392 | -4.71221 | 36857 ft | 511 kts | 163° |
| 2026-05-04 14:54 | 64.59720 | -4.65593 | 36868 ft | 510 kts | 163° |
| 2026-05-04 14:55 | 64.53082 | -4.60024 | 36873 ft | 509 kts | 163° |
| 2026-05-04 14:55 | 64.46386 | -4.54436 | 36870 ft | 510 kts | 163° |
| 2026-05-04 14:56 | 64.39713 | -4.48897 | 36875 ft | 510 kts | 163° |
| 2026-05-04 14:56 | 64.33114 | -4.43447 | 36887 ft | 510 kts | 163° |
| 2026-05-04 14:57 | 64.26441 | -4.37964 | 36893 ft | 511 kts | 163° |
| 2026-05-04 14:57 | 64.19852 | -4.32575 | 36882 ft | 509 kts | 164° |
| 2026-05-04 14:58 | 64.13206 | -4.27168 | 36907 ft | 508 kts | 165° |
| 2026-05-04 14:58 | 64.06578 | -4.21804 | 36902 ft | 509 kts | 165° |
| 2026-05-04 14:59 | 63.99976 | -4.16493 | 36921 ft | 509 kts | 165° |
| 2026-05-04 15:00 | 63.89972 | -4.08495 | 36915 ft | 510 kts | 165° |
| 2026-05-04 15:00 | 63.83302 | -4.03193 | 36921 ft | 510 kts | 165° |
| 2026-05-04 15:01 | 63.73339 | -3.95318 | 36929 ft | 509 kts | 165° |
| 2026-05-04 15:01 | 63.66666 | -3.90076 | 36923 ft | 509 kts | 165° |
| 2026-05-04 15:02 | 63.60037 | -3.84896 | 36919 ft | 509 kts | 165° |
| 2026-05-04 15:02 | 63.53338 | -3.79687 | 36931 ft | 509 kts | 165° |
| 2026-05-04 15:03 | 63.46686 | -3.74541 | 36946 ft | 509 kts | 166° |
| 2026-05-04 15:03 | 63.40047 | -3.69431 | 36946 ft | 509 kts | 166° |
| 2026-05-04 15:04 | 63.33368 | -3.64314 | 36952 ft | 507 kts | 166° |
| 2026-05-04 15:04 | 63.26713 | -3.59246 | 36960 ft | 509 kts | 166° |
| 2026-05-04 15:05 | 63.20089 | -3.54224 | 36952 ft | 509 kts | 166° |
| 2026-05-04 15:05 | 63.13414 | -3.49188 | 36954 ft | 508 kts | 166° |
| 2026-05-04 15:06 | 63.06743 | -3.44180 | 36970 ft | 509 kts | 166° |
| 2026-05-04 15:07 | 62.96742 | -3.36710 | 36953 ft | 508 kts | 166° |
| 2026-05-04 15:07 | 62.90048 | -3.31741 | 36942 ft | 508 kts | 167° |
| 2026-05-04 15:08 | 62.83380 | -3.26815 | 36949 ft | 510 kts | 167° |
| 2026-05-04 15:08 | 62.76672 | -3.21884 | 36950 ft | 509 kts | 167° |
| 2026-05-04 15:09 | 62.70023 | -3.17018 | 36938 ft | 507 kts | 167° |
| 2026-05-04 15:09 | 62.63340 | -3.12152 | 36944 ft | 508 kts | 167° |
| 2026-05-04 15:10 | 62.53336 | -3.04912 | 36945 ft | 510 kts | 167° |
| 2026-05-04 15:11 | 62.43251 | -2.97664 | 36940 ft | 509 kts | 167° |
| 2026-05-04 15:11 | 62.36590 | -2.92905 | 36940 ft | 507 kts | 167° |
| 2026-05-04 15:12 | 62.29942 | -2.88178 | 36952 ft | 508 kts | 167° |
| 2026-05-04 15:12 | 62.23235 | -2.83431 | 36959 ft | 507 kts | 167° |
| 2026-05-04 15:13 | 62.16566 | -2.78735 | 36956 ft | 511 kts | 167° |
| 2026-05-04 15:13 | 62.09879 | -2.74045 | 36973 ft | 508 kts | 167° |
| 2026-05-04 15:14 | 62.03187 | -2.69376 | 36979 ft | 510 kts | 167° |
| 2026-05-04 15:14 | 61.96469 | -2.64709 | 36958 ft | 508 kts | 167° |
| 2026-05-04 15:15 | 61.89809 | -2.60103 | 36978 ft | 507 kts | 167° |
| 2026-05-04 15:15 | 61.83128 | -2.55505 | 36977 ft | 508 kts | 167° |
| 2026-05-04 15:16 | 61.73072 | -2.48623 | 36973 ft | 506 kts | 167° |
| 2026-05-04 15:17 | 61.63050 | -2.41811 | 36954 ft | 505 kts | 168° |
| 2026-05-04 15:17 | 61.53055 | -2.35066 | 36996 ft | 507 kts | 167° |
| 2026-05-04 15:18 | 61.46382 | -2.30583 | 36983 ft | 502 kts | 168° |
| 2026-05-04 15:19 | 61.36444 | -2.23952 | 36995 ft | 506 kts | 169° |
| 2026-05-04 15:19 | 61.26465 | -2.17336 | 36990 ft | 504 kts | 168° |
| 2026-05-04 15:20 | 61.19828 | -2.12960 | 36968 ft | 503 kts | 168° |
| 2026-05-04 15:20 | 61.13192 | -2.08604 | 37003 ft | 504 kts | 168° |
| 2026-05-04 15:21 | 61.06573 | -2.04277 | 36972 ft | 503 kts | 169° |
| 2026-05-04 15:22 | 60.96586 | -1.97763 | 36973 ft | 502 kts | 168° |
| 2026-05-04 15:22 | 60.86689 | -1.91260 | 36983 ft | 502 kts | 168° |
| 2026-05-04 15:23 | 60.80050 | -1.86926 | 36979 ft | 503 kts | 168° |
| 2026-05-04 15:23 | 60.73431 | -1.82622 | 36974 ft | 501 kts | 168° |
| 2026-05-04 15:24 | 60.60197 | -1.74075 | 36986 ft | 498 kts | 168° |
| 2026-05-04 15:25 | 60.53604 | -1.69846 | 36985 ft | 499 kts | 168° |
| 2026-05-04 15:26 | 60.43727 | -1.63545 | 36984 ft | 501 kts | 168° |
| 2026-05-04 15:26 | 60.33795 | -1.57246 | 36987 ft | 498 kts | 168° |
| 2026-05-04 15:27 | 60.23936 | -1.51035 | 36996 ft | 499 kts | 168° |
| 2026-05-04 15:28 | 60.14085 | -1.44868 | 36988 ft | 497 kts | 168° |
| 2026-05-04 15:29 | 60.04247 | -1.38749 | 37006 ft | 497 kts | 168° |
| 2026-05-04 15:30 | 59.81632 | -1.22235 | 36984 ft | 505 kts | 158° |
| 2026-05-04 15:31 | 59.72371 | -1.12644 | 36979 ft | 503 kts | 158° |
| 2026-05-04 15:32 | 59.56885 | -0.96778 | 36982 ft | 504 kts | 158° |
| 2026-05-04 15:34 | 59.41403 | -0.81094 | 36816 ft | 503 kts | 158° |
| 2026-05-04 15:34 | 59.38329 | -0.78000 | 36960 ft | 505 kts | 158° |
| 2026-05-04 15:34 | 59.32090 | -0.71740 | 36981 ft | 504 kts | 158° |
| 2026-05-04 15:35 | 59.22807 | -0.62470 | 36977 ft | 502 kts | 158° |
| 2026-05-04 15:36 | 59.13479 | -0.53218 | 36999 ft | 503 kts | 158° |
| 2026-05-04 15:36 | 59.07283 | -0.47103 | 36980 ft | 502 kts | 158° |
| 2026-05-04 15:37 | 59.01065 | -0.40991 | 36997 ft | 503 kts | 158° |
| 2026-05-04 15:37 | 58.94838 | -0.34894 | 36988 ft | 502 kts | 158° |
| 2026-05-04 15:38 | 58.88625 | -0.28836 | 36991 ft | 501 kts | 158° |
| 2026-05-04 15:38 | 58.82416 | -0.22807 | 36971 ft | 500 kts | 158° |
| 2026-05-04 15:39 | 58.76239 | -0.16833 | 36978 ft | 500 kts | 158° |
| 2026-05-04 15:40 | 58.66979 | -0.07922 | 36970 ft | 500 kts | 158° |
| 2026-05-04 15:40 | 58.60772 | -0.01979 | 36970 ft | 500 kts | 158° |
| 2026-05-04 15:41 | 58.54555 | 0.03950 | 36966 ft | 500 kts | 158° |
| 2026-05-04 15:41 | 58.48337 | 0.09858 | 36961 ft | 499 kts | 158° |
| 2026-05-04 15:42 | 58.42145 | 0.15716 | 36962 ft | 498 kts | 158° |
| 2026-05-04 15:42 | 58.35978 | 0.21528 | 36966 ft | 498 kts | 158° |
| 2026-05-04 15:43 | 58.29776 | 0.27351 | 36963 ft | 498 kts | 158° |
| 2026-05-04 15:43 | 58.23592 | 0.33134 | 36960 ft | 497 kts | 158° |
| 2026-05-04 15:44 | 58.17410 | 0.38892 | 36954 ft | 498 kts | 158° |
| 2026-05-04 15:44 | 58.11207 | 0.44647 | 36966 ft | 497 kts | 158° |
| 2026-05-04 15:45 | 58.05043 | 0.50343 | 36972 ft | 497 kts | 158° |
| 2026-05-04 15:45 | 57.98850 | 0.56046 | 36963 ft | 496 kts | 158° |
| 2026-05-04 15:46 | 57.92652 | 0.61729 | 36977 ft | 495 kts | 158° |
| 2026-05-04 15:46 | 57.86471 | 0.67376 | 36979 ft | 494 kts | 159° |
| 2026-05-04 15:47 | 57.80327 | 0.72967 | 36970 ft | 493 kts | 159° |
| 2026-05-04 15:47 | 57.74180 | 0.78538 | 36961 ft | 493 kts | 159° |
| 2026-05-04 15:48 | 57.68024 | 0.84097 | 36952 ft | 492 kts | 159° |
| 2026-05-04 15:48 | 57.58826 | 0.92364 | 36984 ft | 491 kts | 159° |
| 2026-05-04 15:49 | 57.52692 | 0.97852 | 36978 ft | 490 kts | 159° |
| 2026-05-04 15:49 | 57.46550 | 1.03326 | 36970 ft | 489 kts | 159° |
| 2026-05-04 15:50 | 57.40454 | 1.08738 | 36991 ft | 488 kts | 159° |
| 2026-05-04 15:50 | 57.34351 | 1.14137 | 36968 ft | 488 kts | 159° |
| 2026-05-04 15:51 | 57.28210 | 1.19549 | 36989 ft | 488 kts | 159° |
| 2026-05-04 15:51 | 57.22144 | 1.24875 | 36990 ft | 487 kts | 159° |
| 2026-05-04 15:52 | 57.16035 | 1.30219 | 36996 ft | 488 kts | 159° |
| 2026-05-04 15:52 | 57.09911 | 1.35558 | 37000 ft | 486 kts | 159° |
| 2026-05-04 15:53 | 57.03852 | 1.40820 | 37003 ft | 485 kts | 159° |
| 2026-05-04 15:53 | 56.97756 | 1.46094 | 37005 ft | 485 kts | 158° |
| 2026-05-04 15:54 | 56.91676 | 1.51337 | 36999 ft | 484 kts | 158° |
| 2026-05-04 15:54 | 56.85596 | 1.56559 | 36998 ft | 486 kts | 158° |
| 2026-05-04 15:55 | 56.79519 | 1.61761 | 37003 ft | 486 kts | 158° |
| 2026-05-04 15:55 | 56.73412 | 1.66970 | 36997 ft | 484 kts | 159° |
| 2026-05-04 15:56 | 56.67337 | 1.72133 | 37008 ft | 484 kts | 159° |
| 2026-05-04 15:56 | 56.61284 | 1.77258 | 37008 ft | 483 kts | 159° |
| 2026-05-04 15:57 | 56.55199 | 1.82393 | 37008 ft | 483 kts | 158° |
| 2026-05-04 15:57 | 56.49147 | 1.87482 | 37008 ft | 482 kts | 158° |
| 2026-05-04 15:58 | 56.43052 | 1.92588 | 37007 ft | 482 kts | 158° |
| 2026-05-04 15:58 | 56.37000 | 1.97641 | 37010 ft | 482 kts | 158° |
| 2026-05-04 15:59 | 56.30951 | 2.02673 | 37012 ft | 482 kts | 158° |
| 2026-05-04 15:59 | 56.24857 | 2.07725 | 37008 ft | 482 kts | 158° |
| 2026-05-04 16:00 | 56.18813 | 2.12718 | 37017 ft | 481 kts | 158° |
| 2026-05-04 16:00 | 56.12751 | 2.17708 | 37005 ft | 480 kts | 158° |
| 2026-05-04 16:01 | 56.06686 | 2.22684 | 37012 ft | 481 kts | 158° |
| 2026-05-04 16:01 | 56.00644 | 2.27624 | 37020 ft | 479 kts | 158° |
| 2026-05-04 16:02 | 55.94632 | 2.32522 | 37012 ft | 478 kts | 158° |
| 2026-05-04 16:03 | 55.85562 | 2.39942 | 37017 ft | 480 kts | 156° |
| 2026-05-04 16:03 | 55.79563 | 2.45010 | 37013 ft | 480 kts | 156° |
| 2026-05-04 16:04 | 55.73549 | 2.50068 | 37008 ft | 480 kts | 156° |
| 2026-05-04 16:04 | 55.64514 | 2.57626 | 37020 ft | 480 kts | 156° |
| 2026-05-04 16:05 | 55.58537 | 2.62603 | 37016 ft | 479 kts | 156° |
| 2026-05-04 16:06 | 55.49508 | 2.70086 | 37012 ft | 478 kts | 156° |
| 2026-05-04 16:07 | 55.37526 | 2.79955 | 37005 ft | 478 kts | 156° |
| 2026-05-04 16:08 | 55.25507 | 2.89789 | 37004 ft | 477 kts | 156° |
| 2026-05-04 16:09 | 55.10529 | 3.01952 | 37016 ft | 475 kts | 156° |
| 2026-05-04 16:10 | 54.98552 | 3.11605 | 37005 ft | 476 kts | 156° |
| 2026-05-04 16:11 | 54.86611 | 3.21166 | 37005 ft | 475 kts | 156° |
| 2026-05-04 16:12 | 54.68694 | 3.35394 | 37015 ft | 473 kts | 156° |
| 2026-05-04 16:13 | 54.56728 | 3.44820 | 37014 ft | 474 kts | 156° |
| 2026-05-04 16:14 | 54.44793 | 3.54161 | 37015 ft | 474 kts | 156° |
| 2026-05-04 16:16 | 54.29863 | 3.65643 | 37010 ft | 471 kts | 161° |
| 2026-05-04 16:17 | 54.14532 | 3.75288 | 37007 ft | 470 kts | 161° |
| 2026-05-04 16:18 | 54.02292 | 3.82913 | 37011 ft | 471 kts | 161° |
| 2026-05-04 16:19 | 53.86956 | 3.92402 | 37013 ft | 469 kts | 161° |
| 2026-05-04 16:20 | 53.71724 | 4.01821 | 37015 ft | 468 kts | 162° |
| 2026-05-04 16:22 | 53.56480 | 4.11198 | 37014 ft | 468 kts | 162° |
| 2026-05-04 16:23 | 53.38237 | 4.22324 | 37017 ft | 466 kts | 162° |
| 2026-05-04 16:25 | 53.20025 | 4.33329 | 37019 ft | 463 kts | 163° |
| 2026-05-04 16:26 | 52.98912 | 4.45963 | 37012 ft | 461 kts | 163° |
| 2026-05-04 16:28 | 52.83862 | 4.54888 | 37009 ft | 461 kts | 163° |
| 2026-05-04 16:29 | 52.62870 | 4.67226 | 36983 ft | 456 kts | 164° |
| 2026-05-04 16:31 | 52.47919 | 4.75941 | 36977 ft | 455 kts | 164° |
| 2026-05-04 16:32 | 52.30102 | 4.86243 | 36974 ft | 454 kts | 164° |
| 2026-05-04 16:33 | 52.18275 | 4.93033 | 36963 ft | 451 kts | 164° |
| 2026-05-04 16:34 | 52.09422 | 4.98090 | 36957 ft | 450 kts | 164° |
| 2026-05-04 16:35 | 51.91746 | 5.08124 | 36949 ft | 449 kts | 164° |
| 2026-05-04 16:36 | 51.82913 | 5.13106 | 36951 ft | 449 kts | 164° |
| 2026-05-04 16:37 | 51.74108 | 5.18053 | 36956 ft | 449 kts | 164° |
| 2026-05-04 16:38 | 51.62360 | 5.24621 | 36953 ft | 447 kts | 164° |
| 2026-05-04 16:39 | 51.47721 | 5.32754 | 36959 ft | 447 kts | 164° |
| 2026-05-04 16:40 | 51.35979 | 5.39238 | 36956 ft | 446 kts | 164° |
| 2026-05-04 16:41 | 51.21368 | 5.47258 | 36951 ft | 446 kts | 164° |
| 2026-05-04 16:43 | 51.06754 | 5.55226 | 36949 ft | 444 kts | 164° |
| 2026-05-04 16:43 | 50.97992 | 5.59977 | 36962 ft | 444 kts | 164° |
| 2026-05-04 16:45 | 50.80443 | 5.69437 | 36969 ft | 444 kts | 165° |
| 2026-05-04 16:46 | 50.65922 | 5.77208 | 36975 ft | 443 kts | 165° |
| 2026-05-04 16:47 | 50.54296 | 5.83394 | 36971 ft | 442 kts | 165° |
| 2026-05-04 16:48 | 50.42671 | 5.89546 | 36965 ft | 442 kts | 165° |
| 2026-05-04 16:49 | 50.31032 | 5.95674 | 36953 ft | 441 kts | 165° |
| 2026-05-04 16:50 | 50.19447 | 6.01743 | 36962 ft | 441 kts | 165° |
| 2026-05-04 16:51 | 50.10763 | 6.06271 | 36962 ft | 440 kts | 165° |
| 2026-05-04 16:52 | 49.99168 | 6.12290 | 36964 ft | 441 kts | 166° |
| 2026-05-04 16:53 | 49.90463 | 6.16788 | 36967 ft | 441 kts | 165° |
| 2026-05-04 16:54 | 49.78877 | 6.22750 | 36981 ft | 440 kts | 165° |
| 2026-05-04 16:55 | 49.61464 | 6.31653 | 36984 ft | 440 kts | 165° |
| 2026-05-04 16:56 | 49.46970 | 6.39013 | 36978 ft | 441 kts | 165° |
| 2026-05-04 16:57 | 49.38484 | 6.44581 | 36986 ft | 444 kts | 159° |
| 2026-05-04 16:58 | 49.27211 | 6.52355 | 36970 ft | 444 kts | 159° |
| 2026-05-04 17:00 | 49.10307 | 6.63797 | 36969 ft | 444 kts | 159° |
| 2026-05-04 17:01 | 48.96176 | 6.73177 | 36968 ft | 443 kts | 162° |
| 2026-05-04 17:02 | 48.84716 | 6.79916 | 36981 ft | 444 kts | 162° |
| 2026-05-04 17:03 | 48.76060 | 6.85013 | 36993 ft | 444 kts | 162° |
| 2026-05-04 17:03 | 48.67431 | 6.90085 | 36993 ft | 445 kts | 162° |
| 2026-05-04 17:04 | 48.55915 | 6.96832 | 36994 ft | 445 kts | 162° |
| 2026-05-04 17:05 | 48.44365 | 7.03566 | 36991 ft | 446 kts | 162° |
| 2026-05-04 17:06 | 48.38622 | 7.06904 | 36501 ft | 441 kts | 162° |
| 2026-05-04 17:06 | 48.35796 | 7.08542 | 35773 ft | 445 kts | 162° |
| 2026-05-04 17:07 | 48.29985 | 7.11904 | 34024 ft | 454 kts | 162° |
| 2026-05-04 17:07 | 48.28025 | 7.13037 | 33436 ft | 454 kts | 162° |
| 2026-05-04 17:07 | 48.24104 | 7.15301 | 32332 ft | 454 kts | 162° |
| 2026-05-04 17:07 | 48.21158 | 7.16999 | 31504 ft | 453 kts | 162° |
| 2026-05-04 17:08 | 48.18226 | 7.18688 | 30708 ft | 452 kts | 162° |
| 2026-05-04 17:08 | 48.12480 | 7.21993 | 29776 ft | 436 kts | 162° |
| 2026-05-04 17:08 | 48.09703 | 7.23587 | 29292 ft | 429 kts | 162° |
| 2026-05-04 17:09 | 48.06934 | 7.25174 | 28785 ft | 423 kts | 162° |
| 2026-05-04 17:09 | 48.04155 | 7.26762 | 28268 ft | 436 kts | 162° |
| 2026-05-04 17:09 | 48.01276 | 7.28404 | 27710 ft | 445 kts | 161° |
| 2026-05-04 17:10 | 47.95567 | 7.31665 | 26607 ft | 433 kts | 161° |
| 2026-05-04 17:10 | 47.87313 | 7.36362 | 24973 ft | 415 kts | 161° |
| 2026-05-04 17:11 | 47.84642 | 7.37880 | 24424 ft | 410 kts | 161° |
| 2026-05-04 17:11 | 47.82006 | 7.39374 | 23878 ft | 405 kts | 161° |
| 2026-05-04 17:11 | 47.76815 | 7.42315 | 22808 ft | 395 kts | 161° |
| 2026-05-04 17:12 | 47.74274 | 7.43752 | 22267 ft | 391 kts | 161° |
| 2026-05-04 17:12 | 47.69070 | 7.46748 | 21161 ft | 409 kts | 157° |
| 2026-05-04 17:13 | 47.62723 | 7.54810 | 19633 ft | 402 kts | 125° |
| 2026-05-04 17:14 | 47.59488 | 7.66309 | 19003 ft | 407 kts | 112° |
| 2026-05-04 17:14 | 47.58551 | 7.70258 | 18745 ft | 405 kts | 112° |
| 2026-05-04 17:14 | 47.56697 | 7.78089 | 18396 ft | 401 kts | 112° |
| 2026-05-04 17:15 | 47.55775 | 7.81986 | 18386 ft | 403 kts | 112° |
| 2026-05-04 17:15 | 47.53972 | 7.89791 | 18385 ft | 405 kts | 108° |
| 2026-05-04 17:16 | 47.53222 | 7.98044 | 18368 ft | 410 kts | 91° |
| 2026-05-04 17:16 | 47.54118 | 8.10618 | 18346 ft | 409 kts | 95° |
| 2026-05-04 17:17 | 47.53764 | 8.14698 | 18308 ft | 388 kts | 105° |
| 2026-05-04 17:17 | 47.50489 | 8.24432 | 18268 ft | 329 kts | 134° |
| 2026-05-04 17:18 | 47.48896 | 8.26824 | 18259 ft | 322 kts | 142° |
| 2026-05-04 17:18 | 47.45174 | 8.30414 | 17846 ft | 322 kts | 157° |
| 2026-05-04 17:19 | 47.41140 | 8.33270 | 16953 ft | 323 kts | 151° |
| 2026-05-04 17:19 | 47.37702 | 8.37542 | 15977 ft | 329 kts | 132° |
| 2026-05-04 17:20 | 47.35343 | 8.43346 | 14985 ft | 336 kts | 113° |
| 2026-05-04 17:20 | 47.34365 | 8.50100 | 13963 ft | 341 kts | 97° |
| 2026-05-04 17:20 | 47.34145 | 8.53551 | 13448 ft | 341 kts | 97° |
| 2026-05-04 17:21 | 47.33676 | 8.60499 | 12389 ft | 342 kts | 98° |
| 2026-05-04 17:21 | 47.33184 | 8.67425 | 11339 ft | 340 kts | 98° |
| 2026-05-04 17:22 | 47.32935 | 8.70870 | 10822 ft | 339 kts | 98° |
| 2026-05-04 17:22 | 47.32688 | 8.74276 | 10628 ft | 327 kts | 98° |
| 2026-05-04 17:23 | 47.32019 | 8.83433 | 10322 ft | 284 kts | 98° |
| 2026-05-04 17:23 | 47.31807 | 8.86292 | 10197 ft | 274 kts | 99° |
| 2026-05-04 17:23 | 47.31405 | 8.91697 | 9938 ft | 261 kts | 99° |
| 2026-05-04 17:24 | 47.31204 | 8.94387 | 9616 ft | 264 kts | 98° |
| 2026-05-04 17:24 | 47.32503 | 9.01885 | 8593 ft | 270 kts | 40° |
| 2026-05-04 17:25 | 47.34176 | 9.03103 | 8265 ft | 271 kts | 15° |
| 2026-05-04 17:25 | 47.37909 | 9.03930 | 7615 ft | 272 kts | 6° |
| 2026-05-04 17:26 | 47.41341 | 9.02298 | 7022 ft | 265 kts | 311° |
| 2026-05-04 17:26 | 47.42877 | 8.94976 | 6356 ft | 243 kts | 276° |
| 2026-05-04 17:27 | 47.43264 | 8.90186 | 5955 ft | 223 kts | 275° |
| 2026-05-04 17:27 | 47.43565 | 8.85956 | 5523 ft | 201 kts | 275° |
| 2026-05-04 17:28 | 47.43844 | 8.82029 | 5011 ft | 183 kts | 276° |
| 2026-05-04 17:29 | 47.44229 | 8.76780 | 4295 ft | 158 kts | 274° |
| 2026-05-04 17:29 | 47.44567 | 8.72178 | 3645 ft | 150 kts | 275° |
| 2026-05-04 17:30 | 47.44876 | 8.67705 | 2938 ft | 148 kts | 277° |
| 2026-05-04 17:31 | 47.45088 | 8.64745 | 2495 ft | 143 kts | 277° |
| 2026-05-04 17:31 | 47.45401 | 8.60422 | 1947 ft | 144 kts | 278° |
| 2026-05-04 17:32 | 47.45625 | 8.57523 | 1526 ft | 139 kts | 276° |
| 2026-05-04 17:33 | 47.45824 | 8.54689 | 1399 ft | 34 kts | 276° |
| 2026-05-04 17:33 | 47.45845 | 8.54424 | 1398 ft | 18 kts | 279° |
| 2026-05-04 17:34 | 47.45956 | 8.54333 | 1397 ft | 6 kts | 92° |
| 2026-05-04 17:34 | 47.45953 | 8.54398 | 1397 ft | 6 kts | 95° |
| 2026-05-04 17:35 | 47.45932 | 8.54702 | 1398 ft | 15 kts | 96° |
| 2026-05-04 17:35 | 47.45909 | 8.55025 | 1401 ft | 15 kts | 96° |
| 2026-05-04 17:35 | 47.45898 | 8.55181 | 1402 ft | 15 kts | 96° |
| 2026-05-04 17:36 | 47.45887 | 8.55333 | 1404 ft | 14 kts | 96° |
| 2026-05-04 17:36 | 47.45880 | 8.55439 | 1406 ft | 7 kts | 96° |
| 2026-05-04 17:36 | 47.45875 | 8.55508 | 1407 ft | 6 kts | 96° |
| 2026-05-04 17:36 | 47.45871 | 8.55582 | 1408 ft | 8 kts | 96° |
| 2026-05-04 17:37 | 47.45864 | 8.55679 | 1409 ft | 10 kts | 96° |
| 2026-05-04 17:37 | 47.45856 | 8.55790 | 1411 ft | 11 kts | 96° |
| 2026-05-04 17:37 | 47.45854 | 8.55867 | 1412 ft | 6 kts | 79° |
| 2026-05-04 17:37 | 47.45892 | 8.55921 | 1412 ft | 8 kts | 15° |
| 2026-05-04 17:38 | 47.45929 | 8.55889 | 1412 ft | 5 kts | 298° |
| 2026-05-04 17:38 | 47.45940 | 8.55847 | 1412 ft | 4 kts | 289° |
| 2026-05-04 17:38 | 47.45952 | 8.55822 | 1411 ft | 2 kts | 331° |
| 2026-05-04 17:38 | 47.45970 | 8.55819 | 1411 ft | 4 kts | 6° |
| 2026-05-04 17:39 | 47.46022 | 8.55829 | 1410 ft | 3 kts | 6° |
| 2026-05-04 17:39 | 47.46027 | 8.55830 | 1410 ft | 0 kts | 6° |